Alta Vista, KS (66834)

9:50 PM CDT on October 22, 2014 (GMT -0500)
Marshall Army Air Field | Change Station
CLOSE
Current Station
Airport
Location: Ft Riley,
Elevation: 1063 ft
Nearby Weather Stations

Elev 1063 ft 39.06 °N, 96.76 °W | Updated 52 minutes ago

Overcast
Overcast
71 °F
Feels Like 71 °F
N
18
Wind Variable Wind from SW

Today
High -- | Low -- °F
--% Chance of Precip.
Yesterday
High -- | Low -- °F
Precip. -- in
7:42 AM 6:37 PM
Waning Crescent, 1% visible
Pressure 30.04 in
Visibility 10.0 miles
Clouds Scattered Clouds 6000 ft
Mostly Cloudy 8500 ft
Dew Point 56 °F
Humidity 59%
Rainfall 0.00 in
Snow Depth Not available.
UV 0 out of 12
Pollen 3.50 out of 12
Air Quality Not available.
Flu Activity No Activity
METAR KFRI 230158Z AUTO 23016KT 10SM -DZ SCT060 BKN085 22/13 A3006 RMK AO2 DZB0103 SLP173 P0000 T02170133

More Conditions Fewer Conditions

Pressure 30.04 in
Visibility 10.0 miles
Clouds Scattered Clouds 6000 ft
Mostly Cloudy 8500 ft
Dew Point 56 °F
Humidity 59%
Rainfall 0.00 in
Snow Depth Not available.
UV 0 out of 12
Pollen 3.50 out of 12
Air Quality Not available.
Flu Activity No Activity
METAR KFRI 230158Z AUTO 23016KT 10SM -DZ SCT060 BKN085 22/13 A3006 RMK AO2 DZB0103 SLP173 P0000 T02170133

More Conditions Fewer Conditions

10-Day Weather Forecast

Almanac

Astronomy

Oct. 22, 2014 Rise Set
Actual Time 7:42 AM CDT 6:37 PM CDT
Civil Twilight 7:15 AM CDT 7:04 PM CDT
Nautical Twilight 6:44 AM CDT 7:35 PM CDT
Astronomical Twilight 6:13 AM CDT 8:06 PM CDT
Moon 6:25 AM CDT (10/22) 6:04 PM CDT (10/22)
Length of Visible Light 11h 49m
Length of Day
10h 55m
Tomorrow will be 2m 22s shorter.
Waning Crescent, 1% of the Moon is Illuminated
Today
Waning Crescent
Oct 23
New
Oct 30
First Quarter
Nov 6
Full
Nov 14
Last Quarter

Today's Extremes

State Highs State Lows

Community

WunderPhotos

Upload Photos

1,764,115 photos uploaded!

Nearby

Snow Depth

Station Depth Elevation
No new snow has been reported.

Earthquake Activity

City Distance Mag. Time & Date
Anthony, Kansas 148 miles 3.3 6:48 PM CDT
2014-10-22
Anthony, Kansas 147 miles 3.0 6:55 AM CDT
2014-10-21
Anthony, Kansas 147 miles 2.6 6:30 PM CDT
2014-10-20
Anthony, Kansas 148 miles 2.6 4:33 PM CDT
2014-10-20
Minimum magnitude displayed is 2.5.

Coastal Water Temperatures

Place Temperature
No Stations Reporting

Nearby Weather Stations